createdAt,value
2017-11-16T00:00:24.487Z,0
2017-11-16T00:01:24.200Z,0
2017-11-16T00:02:24.184Z,0
2017-11-16T00:03:24.437Z,0
2017-11-16T00:04:24.149Z,0
2017-11-16T00:05:24.133Z,0
2017-11-16T00:06:24.388Z,0
2017-11-16T00:07:24.373Z,0
2017-11-16T00:08:24.354Z,0
2017-11-16T00:09:24.335Z,0
2017-11-16T00:10:24.319Z,0
2017-11-16T00:11:24.300Z,0
2017-11-16T00:12:24.018Z,0
2017-11-16T00:13:23.998Z,0
2017-11-16T00:14:24.253Z,0
2017-11-16T00:15:23.964Z,0
2017-11-16T00:16:24.221Z,0
2017-11-16T00:17:24.199Z,0
2017-11-16T00:18:24.183Z,0
2017-11-16T00:19:23.896Z,0
2017-11-16T00:20:23.879Z,0
2017-11-16T00:21:24.134Z,0
2017-11-16T00:22:24.111Z,0
2017-11-16T00:23:24.093Z,0
2017-11-16T00:24:23.807Z,0
2017-11-16T00:25:24.073Z,0
2017-11-16T00:26:24.051Z,0
2017-11-16T00:27:24.034Z,0
2017-11-16T00:28:24.014Z,0
2017-11-16T00:29:23.727Z,0
2017-11-16T00:30:23.720Z,0
2017-11-16T00:31:23.958Z,0
2017-11-16T00:32:23.674Z,0
2017-11-16T00:33:23.925Z,0
2017-11-16T00:34:23.909Z,0
2017-11-16T00:35:23.625Z,0
2017-11-16T00:36:23.888Z,0
2017-11-16T00:37:23.592Z,0
2017-11-16T00:38:23.572Z,0
2017-11-16T00:39:23.826Z,0
2017-11-16T00:40:23.536Z,0
2017-11-16T00:41:23.792Z,0
2017-11-16T00:42:23.505Z,0
2017-11-16T00:43:23.757Z,0
2017-11-16T00:44:23.470Z,0
2017-11-16T00:45:23.453Z,0
2017-11-16T00:46:23.704Z,0
2017-11-16T00:47:23.687Z,0
2017-11-16T00:48:23.401Z,0
2017-11-16T00:49:23.384Z,0
2017-11-16T00:50:23.369Z,0
2017-11-16T00:51:23.350Z,0
2017-11-16T00:52:23.615Z,0
2017-11-16T00:53:23.314Z,0
2017-11-16T00:54:23.300Z,0
2017-11-16T00:55:23.282Z,0
2017-11-16T00:56:23.538Z,0
2017-11-16T00:57:23.257Z,0
2017-11-16T00:58:23.234Z,0
2017-11-16T00:59:23.484Z,0
2017-11-16T01:00:23.466Z,0
2017-11-16T01:01:23.445Z,0
2017-11-16T01:02:23.162Z,0
2017-11-16T01:03:23.421Z,0
2017-11-16T01:04:23.124Z,0
2017-11-16T01:05:23.398Z,0
2017-11-16T01:06:23.366Z,0
2017-11-16T01:07:23.349Z,0
2017-11-16T01:08:23.058Z,0
2017-11-16T01:09:23.050Z,0
2017-11-16T01:10:23.026Z,0
2017-11-16T01:11:23.010Z,0
2017-11-16T01:12:23.265Z,0
2017-11-16T01:13:23.249Z,0
2017-11-16T01:14:22.957Z,0
2017-11-16T01:15:23.216Z,0
2017-11-16T01:16:22.921Z,0
2017-11-16T01:17:22.906Z,0
2017-11-16T01:18:23.157Z,0
2017-11-16T01:19:22.872Z,0
2017-11-16T01:20:23.127Z,0
2017-11-16T01:21:22.835Z,0
2017-11-16T01:22:22.820Z,0
2017-11-16T01:23:22.801Z,0
2017-11-16T01:24:22.783Z,0
2017-11-16T01:25:23.039Z,0
2017-11-16T01:26:23.018Z,0
2017-11-16T01:27:22.736Z,0
2017-11-16T01:28:22.988Z,0
2017-11-16T01:29:22.966Z,0
2017-11-16T01:30:22.677Z,0
2017-11-16T01:31:22.931Z,0
2017-11-16T01:32:22.919Z,0
2017-11-16T01:33:22.894Z,0
2017-11-16T01:34:22.888Z,0
2017-11-16T01:35:22.593Z,0
2017-11-16T01:36:22.853Z,0
2017-11-16T01:37:22.833Z,0
2017-11-16T01:38:22.539Z,0
2017-11-16T01:39:22.793Z,0
2017-11-16T01:40:22.792Z,0
2017-11-16T01:41:22.761Z,0
2017-11-16T01:42:22.472Z,0
2017-11-16T01:43:22.455Z,0
2017-11-16T01:44:22.709Z,0
2017-11-16T01:45:22.740Z,0
2017-11-16T01:46:22.678Z,0
2017-11-16T01:47:22.652Z,0
2017-11-16T01:48:22.364Z,0
2017-11-16T01:49:22.621Z,0
2017-11-16T01:50:22.617Z,0
2017-11-16T01:51:22.315Z,0
2017-11-16T01:52:22.565Z,0
2017-11-16T01:53:22.280Z,0
2017-11-16T01:54:22.532Z,0
2017-11-16T01:55:22.245Z,0
2017-11-16T01:56:22.237Z,0
2017-11-16T01:57:22.681Z,0
2017-11-16T01:58:22.460Z,0
2017-11-16T01:59:22.173Z,0
2017-11-16T02:00:22.159Z,0
2017-11-16T02:01:22.414Z,0
2017-11-16T02:02:22.392Z,0
2017-11-16T02:03:22.377Z,0
2017-11-16T02:04:22.089Z,0
2017-11-16T02:05:22.339Z,0
2017-11-16T02:06:22.321Z,0
2017-11-16T02:07:22.306Z,0
2017-11-16T02:08:22.291Z,0
2017-11-16T02:09:22.269Z,0
2017-11-16T02:10:21.983Z,0
2017-11-16T02:11:21.965Z,0
2017-11-16T02:12:21.952Z,0
2017-11-16T02:13:21.931Z,0
2017-11-16T02:14:22.185Z,0
2017-11-16T02:15:22.164Z,0
2017-11-16T02:16:22.146Z,0
2017-11-16T02:17:21.860Z,0
2017-11-16T02:18:22.108Z,0
2017-11-16T02:19:21.829Z,0
2017-11-16T02:20:22.088Z,0
2017-11-16T02:21:22.069Z,0
2017-11-16T02:22:22.047Z,0
2017-11-16T02:23:21.759Z,0
2017-11-16T02:24:22.010Z,0
2017-11-16T02:25:21.726Z,0
2017-11-16T02:26:21.972Z,0
2017-11-16T02:27:21.957Z,0
2017-11-16T02:28:21.940Z,0
2017-11-16T02:29:21.924Z,0
2017-11-16T02:30:21.906Z,0
2017-11-16T02:31:21.887Z,0
2017-11-16T02:32:21.600Z,0
2017-11-16T02:33:21.584Z,0
2017-11-16T02:34:21.567Z,0
2017-11-16T02:35:21.551Z,0
2017-11-16T02:36:21.890Z,0
2017-11-16T02:37:21.783Z,0
2017-11-16T02:38:21.497Z,0
2017-11-16T02:39:21.756Z,0
2017-11-16T02:40:21.735Z,0
2017-11-16T02:41:21.719Z,0
2017-11-16T02:42:21.702Z,0
2017-11-16T02:43:21.686Z,0
2017-11-16T02:44:21.664Z,0
2017-11-16T02:45:21.660Z,0
2017-11-16T02:46:21.356Z,0
2017-11-16T02:47:21.612Z,0
2017-11-16T02:48:21.592Z,0
2017-11-16T02:49:21.308Z,0
2017-11-16T02:50:21.564Z,0
2017-11-16T02:51:21.274Z,0
2017-11-16T02:52:21.552Z,0
2017-11-16T02:53:21.508Z,0
2017-11-16T02:54:21.218Z,0
2017-11-16T02:55:21.200Z,0
2017-11-16T02:56:21.186Z,0
2017-11-16T02:57:21.447Z,0
2017-11-16T02:58:21.420Z,0
2017-11-16T02:59:21.433Z,0
2017-11-16T03:00:21.121Z,0
2017-11-16T03:01:21.370Z,0
2017-11-16T03:02:21.353Z,0
2017-11-16T03:03:21.337Z,0
2017-11-16T03:04:21.049Z,0
2017-11-16T03:05:21.028Z,0
2017-11-16T03:06:21.281Z,0
2017-11-16T03:07:21.265Z,0
2017-11-16T03:08:20.979Z,0
2017-11-16T03:09:21.230Z,0
2017-11-16T03:10:21.211Z,0
2017-11-16T03:11:21.202Z,0
2017-11-16T03:12:20.909Z,0
2017-11-16T03:13:21.159Z,0
2017-11-16T03:14:20.878Z,0
2017-11-16T03:15:20.854Z,0
2017-11-16T03:16:20.840Z,0
2017-11-16T03:17:21.088Z,0
2017-11-16T03:18:20.803Z,0
2017-11-16T03:19:20.787Z,0
2017-11-16T03:20:21.044Z,0
2017-11-16T03:21:20.752Z,0
2017-11-16T03:22:20.734Z,0
2017-11-16T03:23:20.719Z,0
2017-11-16T03:24:20.700Z,0
2017-11-16T03:25:20.954Z,0
2017-11-16T03:26:20.667Z,0
2017-11-16T03:27:20.917Z,0
2017-11-16T03:28:20.901Z,0
2017-11-16T03:29:20.891Z,0
2017-11-16T03:30:20.870Z,0
2017-11-16T03:31:20.626Z,0
2017-11-16T03:32:20.563Z,0
2017-11-16T03:33:20.829Z,0
2017-11-16T03:34:20.804Z,0
2017-11-16T03:35:20.510Z,0
2017-11-16T03:36:20.492Z,0
2017-11-16T03:37:20.476Z,0
2017-11-16T03:38:20.458Z,0
2017-11-16T03:39:20.708Z,0
2017-11-16T03:40:20.425Z,0
2017-11-16T03:41:20.677Z,0
2017-11-16T03:42:20.394Z,0
2017-11-16T03:43:20.648Z,0
2017-11-16T03:44:20.635Z,0
2017-11-16T03:45:20.616Z,0
2017-11-16T03:46:20.602Z,0
2017-11-16T03:47:20.590Z,0
2017-11-16T03:48:20.290Z,0
2017-11-16T03:49:20.271Z,0
2017-11-16T03:50:20.253Z,0
2017-11-16T03:51:20.237Z,0
2017-11-16T03:52:20.219Z,0
2017-11-16T03:53:20.204Z,0
2017-11-16T03:54:20.448Z,0
2017-11-16T03:55:20.457Z,0
2017-11-16T03:56:20.433Z,0
2017-11-16T03:57:20.605Z,0
2017-11-16T03:58:20.117Z,0
2017-11-16T03:59:20.103Z,0
2017-11-16T04:00:20.083Z,0
2017-11-16T04:01:20.345Z,0
2017-11-16T04:02:20.315Z,0
2017-11-16T04:03:20.300Z,0
2017-11-16T04:04:20.285Z,0
2017-11-16T04:05:20.270Z,0
2017-11-16T04:06:19.976Z,0
2017-11-16T04:07:20.257Z,0
2017-11-16T04:08:20.223Z,0
2017-11-16T04:09:20.195Z,0
2017-11-16T04:10:19.913Z,0
2017-11-16T04:11:20.158Z,0
2017-11-16T04:12:20.151Z,0
2017-11-16T04:13:20.125Z,0
2017-11-16T04:14:20.108Z,0
2017-11-16T04:15:20.092Z,0.76
2017-11-16T04:16:20.073Z,0.38
2017-11-16T04:17:20.054Z,0.57
2017-11-16T04:18:20.051Z,2.09
2017-11-16T04:19:20.026Z,2.75
2017-11-16T04:20:19.735Z,2.75
2017-11-16T04:21:19.724Z,2.37
2017-11-16T04:22:19.979Z,2.28
2017-11-16T04:23:19.960Z,3.33
2017-11-16T04:24:19.938Z,3.23
2017-11-16T04:25:19.917Z,4.66
2017-11-16T04:26:19.904Z,6.27
2017-11-16T04:27:19.898Z,6.09
2017-11-16T04:28:19.885Z,6.37
2017-11-16T04:29:19.589Z,7.42
2017-11-16T04:30:19.832Z,9.22
2017-11-16T04:31:19.817Z,9.51
2017-11-16T04:32:19.529Z,10.36
2017-11-16T04:33:19.784Z,12.08
2017-11-16T04:34:19.494Z,14.84
2017-11-16T04:35:19.475Z,20.45
2017-11-16T04:36:19.482Z,19.12
2017-11-16T04:37:19.707Z,18.84
2017-11-16T04:38:19.423Z,22.16
2017-11-16T04:39:19.403Z,22.74
2017-11-16T04:40:19.657Z,21.88
2017-11-16T04:41:19.638Z,21.02
2017-11-16T04:42:19.353Z,22.54
2017-11-16T04:43:19.336Z,21.12
2017-11-16T04:44:19.314Z,20.26
2017-11-16T04:45:19.300Z,19.78
2017-11-16T04:46:19.554Z,20.64
2017-11-16T04:47:19.267Z,21.21
2017-11-16T04:48:19.245Z,24.44
2017-11-16T04:49:19.312Z,24.63
2017-11-16T04:50:19.497Z,23.97
2017-11-16T04:51:19.469Z,24.35
2017-11-16T04:52:19.180Z,24.73
2017-11-16T04:53:19.160Z,24.92
2017-11-16T04:54:19.411Z,24.35
2017-11-16T04:55:19.395Z,24.35
2017-11-16T04:56:19.371Z,25.68
2017-11-16T04:57:19.094Z,25.02
2017-11-16T04:58:19.345Z,25.02
2017-11-16T04:59:19.086Z,25.11
2017-11-16T05:00:19.033Z,25.3
2017-11-16T05:01:19.284Z,28.44
2017-11-16T05:02:18.999Z,29.39
2017-11-16T05:03:19.251Z,30.63
2017-11-16T05:04:19.234Z,33.58
2017-11-16T05:05:19.220Z,36.24
2017-11-16T05:06:19.196Z,37.76
2017-11-16T05:07:18.909Z,40.05
2017-11-16T05:08:18.890Z,41.28
2017-11-16T05:09:19.145Z,42.71
2017-11-16T05:10:18.856Z,40.9
2017-11-16T05:11:18.839Z,39.67
2017-11-16T05:12:19.091Z,41.47
2017-11-16T05:13:19.075Z,44.71
2017-11-16T05:14:18.795Z,43.66
2017-11-16T05:15:18.771Z,43.95
2017-11-16T05:16:18.749Z,42.52
2017-11-16T05:17:19.010Z,43.28
2017-11-16T05:18:18.987Z,41.95
2017-11-16T05:19:18.697Z,41.09
2017-11-16T05:20:18.677Z,43.28
2017-11-16T05:21:18.662Z,42.52
2017-11-16T05:22:18.641Z,41.76
2017-11-16T05:23:18.625Z,41.47
2017-11-16T05:24:18.879Z,41.09
2017-11-16T05:25:18.859Z,43.95
2017-11-16T05:26:18.571Z,43.19
2017-11-16T05:27:18.822Z,42.71
2017-11-16T05:28:18.536Z,43.76
2017-11-16T05:29:18.516Z,42.52
2017-11-16T05:30:18.497Z,42.9
2017-11-16T05:31:18.481Z,41.85
2017-11-16T05:32:18.732Z,41
2017-11-16T05:33:18.448Z,41.38
2017-11-16T05:34:18.690Z,41.57
2017-11-16T05:35:18.730Z,40.71
2017-11-16T05:36:18.658Z,40.33
2017-11-16T05:37:18.373Z,40.14
2017-11-16T05:38:18.623Z,39.76
2017-11-16T05:39:18.339Z,38.81
2017-11-16T05:40:18.321Z,38.53
2017-11-16T05:41:18.575Z,37.86
2017-11-16T05:42:18.558Z,37.29
2017-11-16T05:43:18.264Z,36.81
2017-11-16T05:44:18.520Z,36.24
2017-11-16T05:45:18.559Z,35.48
2017-11-16T05:46:18.480Z,35.1
2017-11-16T05:47:18.466Z,34.15
2017-11-16T05:48:18.446Z,31.87
2017-11-16T05:49:18.430Z,31.68
2017-11-16T05:50:18.417Z,31.1
2017-11-16T05:51:18.394Z,31.1
2017-11-16T05:52:18.381Z,30.82
2017-11-16T05:53:18.120Z,30.54
2017-11-16T05:54:18.334Z,30.25
2017-11-16T05:55:18.333Z,29.77
2017-11-16T05:56:18.037Z,29.58
2017-11-16T05:57:18.220Z,29.11
2017-11-16T05:58:17.998Z,28.25
2017-11-16T05:59:17.984Z,28.34
2017-11-16T06:00:18.234Z,27.3
2017-11-16T06:01:17.950Z,27.2
2017-11-16T06:02:17.929Z,27.3
2017-11-16T06:03:18.183Z,27.01
2017-11-16T06:04:18.162Z,26.25
2017-11-16T06:05:17.876Z,26.92
2017-11-16T06:06:18.126Z,26.54
2017-11-16T06:07:18.110Z,26.92
2017-11-16T06:08:17.828Z,27.11
2017-11-16T06:09:18.077Z,27.3
2017-11-16T06:10:18.059Z,26.92
2017-11-16T06:11:17.770Z,27.58
2017-11-16T06:12:17.752Z,27.2
2017-11-16T06:13:17.736Z,27.2
2017-11-16T06:14:17.990Z,27.11
2017-11-16T06:15:17.698Z,26.82
2017-11-16T06:16:17.955Z,26.54
2017-11-16T06:17:17.665Z,26.73
2017-11-16T06:18:17.919Z,26.06
2017-11-16T06:19:17.628Z,26.44
2017-11-16T06:20:17.884Z,26.25
2017-11-16T06:21:17.874Z,25.87
2017-11-16T06:22:17.574Z,25.49
2017-11-16T06:23:17.561Z,24.44
2017-11-16T06:24:17.814Z,24.35
2017-11-16T06:25:17.792Z,23.4
2017-11-16T06:26:17.771Z,23.49
2017-11-16T06:27:17.759Z,23.4
2017-11-16T06:28:17.753Z,23.21
2017-11-16T06:29:17.722Z,23.02
2017-11-16T06:30:17.440Z,22.74
2017-11-16T06:31:17.692Z,22.54
2017-11-16T06:32:17.405Z,22.35
2017-11-16T06:33:17.655Z,23.78
2017-11-16T06:34:17.637Z,24.73
2017-11-16T06:35:17.617Z,25.87
2017-11-16T06:36:17.653Z,25.11
2017-11-16T06:37:17.312Z,24.82
2017-11-16T06:38:17.295Z,25.02
2017-11-16T06:39:17.549Z,25.3
2017-11-16T06:40:17.527Z,25.29
2017-11-16T06:41:17.509Z,26.54
2017-11-16T06:42:17.494Z,28.34
2017-11-16T06:43:17.473Z,28.92
2017-11-16T06:44:17.459Z,28.53
2017-11-16T06:45:17.173Z,28.53
2017-11-16T06:46:17.475Z,28.34
2017-11-16T06:47:17.134Z,28.72
2017-11-16T06:48:17.120Z,28.53
2017-11-16T06:49:17.379Z,32.34
2017-11-16T06:50:17.353Z,35.77
2017-11-16T06:51:17.334Z,36.15
2017-11-16T06:52:17.316Z,35.1
2017-11-16T06:53:17.027Z,34.44
2017-11-16T06:54:17.284Z,38.9
2017-11-16T06:55:17.266Z,38.53
2017-11-16T06:56:16.975Z,38.81
2017-11-16T06:57:16.958Z,37.48
2017-11-16T06:58:17.232Z,37.19
2017-11-16T06:59:16.941Z,37.1
2017-11-16T07:00:17.179Z,36.24
2017-11-16T07:01:17.162Z,37.48
2017-11-16T07:02:16.869Z,37.29
2017-11-16T07:03:17.125Z,37.19
2017-11-16T07:04:16.835Z,37.48
2017-11-16T07:05:17.085Z,37.86
2017-11-16T07:06:17.081Z,37.48
2017-11-16T07:07:16.783Z,38.34
2017-11-16T07:08:17.033Z,41
2017-11-16T07:09:17.023Z,41.09
2017-11-16T07:10:16.730Z,42.9
2017-11-16T07:11:16.710Z,41.57
2017-11-16T07:12:16.967Z,42.52
2017-11-16T07:13:16.674Z,41.85
2017-11-16T07:14:16.657Z,40.9
2017-11-16T07:15:16.638Z,40.43
2017-11-16T07:16:16.899Z,39.95
2017-11-16T07:17:16.872Z,42.43
2017-11-16T07:18:16.858Z,42.8
2017-11-16T07:19:16.834Z,42.8
2017-11-16T07:20:16.553Z,42.52
2017-11-16T07:21:16.804Z,41.47
2017-11-16T07:22:16.569Z,40.81
2017-11-16T07:23:16.766Z,42.43
2017-11-16T07:24:16.479Z,42.8
2017-11-16T07:25:16.461Z,41.66
2017-11-16T07:26:16.712Z,42.61
2017-11-16T07:27:16.701Z,41.47
2017-11-16T07:28:16.678Z,41.76
2017-11-16T07:29:16.393Z,41.85
2017-11-16T07:30:16.648Z,40.62
2017-11-16T07:31:16.355Z,40.14
2017-11-16T07:32:16.336Z,39.48
2017-11-16T07:33:16.320Z,39
2017-11-16T07:34:16.574Z,38.62
2017-11-16T07:35:16.287Z,38.53
2017-11-16T07:36:16.538Z,38.05
2017-11-16T07:37:16.528Z,37.76
2017-11-16T07:38:16.514Z,37.67
2017-11-16T07:39:16.488Z,37.76
2017-11-16T07:40:16.474Z,38.05
2017-11-16T07:41:16.178Z,37.95
2017-11-16T07:42:16.162Z,37.95
2017-11-16T07:43:16.412Z,37.57
2017-11-16T07:44:16.401Z,37.29
2017-11-16T07:45:16.379Z,37.38
2017-11-16T07:46:16.362Z,37.29
2017-11-16T07:47:16.074Z,37.38
2017-11-16T07:48:16.055Z,38.05
2017-11-16T07:49:16.308Z,38.43
2017-11-16T07:50:16.022Z,38.34
2017-11-16T07:51:16.277Z,38.62
2017-11-16T07:52:16.254Z,40.81
2017-11-16T07:53:15.970Z,45.56
2017-11-16T07:54:15.949Z,43.66
2017-11-16T07:55:15.931Z,42.9
2017-11-16T07:56:15.920Z,42.33
2017-11-16T07:57:16.380Z,48.42
2017-11-16T07:58:16.152Z,46.7
2017-11-16T07:59:16.129Z,45.75
2017-11-16T08:00:16.113Z,45.18
2017-11-16T08:01:16.095Z,46.7
2017-11-16T08:02:15.809Z,46.61
2017-11-16T08:03:16.062Z,46.23
2017-11-16T08:04:16.050Z,47.94
2017-11-16T08:05:15.775Z,46.7
2017-11-16T08:06:16.010Z,50.7
2017-11-16T08:07:15.725Z,51.65
2017-11-16T08:08:15.973Z,50.7
2017-11-16T08:09:15.956Z,50.6
2017-11-16T08:10:15.948Z,49.46
2017-11-16T08:11:15.650Z,48.9
2017-11-16T08:12:15.636Z,47.85
2017-11-16T08:13:15.887Z,50.6
2017-11-16T08:14:15.597Z,49.27
2017-11-16T08:15:15.886Z,48.03
2017-11-16T08:16:15.838Z,47.47
2017-11-16T08:17:15.812Z,47.85
2017-11-16T08:18:15.528Z,46.61
2017-11-16T08:19:15.508Z,46.89
2017-11-16T08:20:15.761Z,46.42
2017-11-16T08:21:15.474Z,47.75
2017-11-16T08:22:15.456Z,47.47
2017-11-16T08:23:15.439Z,47.66
2017-11-16T08:24:15.692Z,46.61
2017-11-16T08:25:15.675Z,51.84
2017-11-16T08:26:15.657Z,49.94
2017-11-16T08:27:15.637Z,51.93
2017-11-16T08:28:15.627Z,50.89
2017-11-16T08:29:15.330Z,50.32
2017-11-16T08:30:15.584Z,48.32
2017-11-16T08:31:15.295Z,48.23
2017-11-16T08:32:15.293Z,47.56
2017-11-16T08:33:15.261Z,48.9
2017-11-16T08:34:15.243Z,47.47
2017-11-16T08:35:15.495Z,47.28
2017-11-16T08:36:15.491Z,47.18
2017-11-16T08:37:15.458Z,48.71
2017-11-16T08:38:15.445Z,47.18
2017-11-16T08:39:15.163Z,46.89
2017-11-16T08:40:15.141Z,46.89
2017-11-16T08:41:15.120Z,46.23
2017-11-16T08:42:15.376Z,46.42
2017-11-16T08:43:15.351Z,45.95
2017-11-16T08:44:15.347Z,45.37
2017-11-16T08:45:15.318Z,45.95
2017-11-16T08:46:15.311Z,45.75
2017-11-16T08:47:15.283Z,45.47
2017-11-16T08:48:15.269Z,47.28
2017-11-16T08:49:14.982Z,48.61
2017-11-16T08:50:15.244Z,49.37
2017-11-16T08:51:14.941Z,49.46
2017-11-16T08:52:14.924Z,49.18
2017-11-16T08:53:14.905Z,49.65
2017-11-16T08:54:14.887Z,54.5
2017-11-16T08:55:14.871Z,53.46
2017-11-16T08:56:14.855Z,52.61
2017-11-16T08:57:15.114Z,54.41
2017-11-16T08:58:15.093Z,55.36
2017-11-16T08:59:15.070Z,54.69
2017-11-16T09:00:15.053Z,54.22
2017-11-16T09:01:15.039Z,53.94
2017-11-16T09:02:15.019Z,53.46
2017-11-16T09:03:15.002Z,52.98
2017-11-16T09:04:14.982Z,53.46
2017-11-16T09:05:14.701Z,53.08
2017-11-16T09:06:14.955Z,56.31
2017-11-16T09:07:14.933Z,54.79
2017-11-16T09:08:14.643Z,54.5
2017-11-16T09:09:14.625Z,56.03
2017-11-16T09:10:14.877Z,54.5
2017-11-16T09:11:14.593Z,55.55
2017-11-16T09:12:14.575Z,55.27
2017-11-16T09:13:14.556Z,56.31
2017-11-16T09:14:14.541Z,55.46
2017-11-16T09:15:14.790Z,54.98
2017-11-16T09:16:14.776Z,58.4
2017-11-16T09:17:14.757Z,57.93
2017-11-16T09:18:14.468Z,58.4
2017-11-16T09:19:14.721Z,59.36
2017-11-16T09:20:14.438Z,58.22
2017-11-16T09:21:14.414Z,57.55
2017-11-16T09:22:14.397Z,57.36
2017-11-16T09:23:14.386Z,58.22
2017-11-16T09:24:14.364Z,58.5
2017-11-16T09:25:14.613Z,57.07
2017-11-16T09:26:14.600Z,59.45
2017-11-16T09:27:14.583Z,57.84
2017-11-16T09:28:14.564Z,58.98
2017-11-16T09:29:14.540Z,58.79
2017-11-16T09:30:14.288Z,59.45
2017-11-16T09:31:14.514Z,60.02
2017-11-16T09:32:14.493Z,65.1
2017-11-16T09:33:14.511Z,62.91
2017-11-16T09:34:14.467Z,64.72
2017-11-16T09:35:14.173Z,62.3
2017-11-16T09:36:14.427Z,62.34
2017-11-16T09:37:14.134Z,61.86
2017-11-16T09:38:14.392Z,63.1
2017-11-16T09:39:14.367Z,66.05
2017-11-16T09:40:14.375Z,65.86
2017-11-16T09:41:14.340Z,71.67
2017-11-16T09:42:14.322Z,71.76
2017-11-16T09:43:14.300Z,72.52
2017-11-16T09:44:14.337Z,71.76
2017-11-16T09:45:13.999Z,72.42
2017-11-16T09:46:13.981Z,71.47
2017-11-16T09:47:14.231Z,70.52
2017-11-16T09:48:13.944Z,74.04
2017-11-16T09:49:13.938Z,72.9
2017-11-16T09:50:13.910Z,74.33
2017-11-16T09:51:14.173Z,73.19
2017-11-16T09:52:13.884Z,75.85
2017-11-16T09:53:13.860Z,76.71
2017-11-16T09:54:13.892Z,73.66
2017-11-16T09:55:13.847Z,72.9
2017-11-16T09:56:13.814Z,71.86
2017-11-16T09:57:13.792Z,72.52
2017-11-16T09:58:13.779Z,71.38
2017-11-16T09:59:14.030Z,72.14
2017-11-16T10:00:14.006Z,72.9
2017-11-16T10:01:13.726Z,76.81
2017-11-16T10:02:13.972Z,74.99
2017-11-16T10:03:13.689Z,72.9
2017-11-16T10:04:13.669Z,71.47
2017-11-16T10:05:13.652Z,76.52
2017-11-16T10:06:13.905Z,77.37
2017-11-16T10:07:13.620Z,76.33
2017-11-16T10:08:13.602Z,83.18
2017-11-16T10:09:13.890Z,81.76
2017-11-16T10:10:13.848Z,81.76
2017-11-16T10:11:13.563Z,80.9
2017-11-16T10:12:13.812Z,82.61
2017-11-16T10:13:13.794Z,82.04
2017-11-16T10:14:13.503Z,80.71
2017-11-16T10:15:13.763Z,82.51
2017-11-16T10:16:13.471Z,82.51
2017-11-16T10:17:13.448Z,83.37
2017-11-16T10:18:13.718Z,85.66
2017-11-16T10:19:13.689Z,85.37
2017-11-16T10:20:13.664Z,85.18
2017-11-16T10:21:13.384Z,85.18
2017-11-16T10:22:13.634Z,85.41
2017-11-16T10:23:13.613Z,90.08
2017-11-16T10:24:13.333Z,87.6
2017-11-16T10:25:13.590Z,86.55
2017-11-16T10:26:13.299Z,86.36
2017-11-16T10:27:13.549Z,85.13
2017-11-16T10:28:13.534Z,88.08
2017-11-16T10:29:13.514Z,93.03
2017-11-16T10:30:13.713Z,89.03
2017-11-16T10:31:13.216Z,87.89
2017-11-16T10:32:13.469Z,85.03
2017-11-16T10:33:13.459Z,88.65
2017-11-16T10:34:13.437Z,88.08
2017-11-16T10:35:13.433Z,88.27
2017-11-16T10:36:13.414Z,85.7
2017-11-16T10:37:13.385Z,90.17
2017-11-16T10:38:13.369Z,89.89
2017-11-16T10:39:13.352Z,93.98
2017-11-16T10:40:13.393Z,92.94
2017-11-16T10:41:13.056Z,89.22
2017-11-16T10:42:13.305Z,92.55
2017-11-16T10:43:13.019Z,93.41
2017-11-16T10:44:13.287Z,92.84
2017-11-16T10:45:12.986Z,91.79
2017-11-16T10:46:12.974Z,88.08
2017-11-16T10:47:12.966Z,86.65
2017-11-16T10:48:13.207Z,91.89
2017-11-16T10:49:13.205Z,91.41
2017-11-16T10:50:13.173Z,92.27
2017-11-16T10:51:13.159Z,89.98
2017-11-16T10:52:13.140Z,95.79
2017-11-16T10:53:13.127Z,92.65
2017-11-16T10:54:13.107Z,94.56
2017-11-16T10:55:12.872Z,93.7
2017-11-16T10:56:12.809Z,92.74
2017-11-16T10:57:12.803Z,96.55
2017-11-16T10:58:12.777Z,92.13
2017-11-16T10:59:12.762Z,90.65
2017-11-16T11:00:12.796Z,94.98
2017-11-16T11:01:12.736Z,95.84
2017-11-16T11:02:12.711Z,96.6
2017-11-16T11:03:12.962Z,93.79
2017-11-16T11:04:12.953Z,98.51
2017-11-16T11:05:12.935Z,95.79
2017-11-16T11:06:12.914Z,97.56
2017-11-16T11:07:12.630Z,95.94
2017-11-16T11:08:12.892Z,95.36
2017-11-16T11:09:12.598Z,96.6
2017-11-16T11:10:12.633Z,95.08
2017-11-16T11:11:12.563Z,97.65
2017-11-16T11:12:12.819Z,96.6
2017-11-16T11:13:12.536Z,98.32
2017-11-16T11:14:12.515Z,97.65
2017-11-16T11:15:12.549Z,93.55
2017-11-16T11:16:12.755Z,96.98
2017-11-16T11:17:12.748Z,97.36
2017-11-16T11:18:12.720Z,98.79
2017-11-16T11:19:12.434Z,96.7
2017-11-16T11:20:12.726Z,98.08
2017-11-16T11:21:12.692Z,96.75
2017-11-16T11:22:12.672Z,96.84
2017-11-16T11:23:12.638Z,96.94
2017-11-16T11:24:12.355Z,97.51
2017-11-16T11:25:12.339Z,97.03
2017-11-16T11:26:12.322Z,96.75
2017-11-16T11:27:12.304Z,96.27
2017-11-16T11:28:12.294Z,94.56
2017-11-16T11:29:12.542Z,97.7
2017-11-16T11:30:12.261Z,94.84
2017-11-16T11:31:12.245Z,93.6
2017-11-16T11:32:12.494Z,93.22
2017-11-16T11:33:12.210Z,93.79
2017-11-16T11:34:12.198Z,95.41
2017-11-16T11:35:12.178Z,94.65
2017-11-16T11:36:12.161Z,96.84
2017-11-16T11:37:12.412Z,96.27
2017-11-16T11:38:12.126Z,97.79
2017-11-16T11:39:12.112Z,96.46
2017-11-16T11:40:12.093Z,97.6
2017-11-16T11:41:12.130Z,95.79
2017-11-16T11:42:12.062Z,96.08
2017-11-16T11:43:12.041Z,94.46
2017-11-16T11:44:12.026Z,94.74
2017-11-16T11:45:12.293Z,99.99
2017-11-16T11:46:12.264Z,98.08
2017-11-16T11:47:12.246Z,97.6
2017-11-16T11:48:12.236Z,95.51
2017-11-16T11:49:11.948Z,98.55
2017-11-16T11:50:11.931Z,98.27
2017-11-16T11:51:11.963Z,97.41
2017-11-16T11:52:11.901Z,97.89
2017-11-16T11:53:12.150Z,95.65
2017-11-16T11:54:12.130Z,94.08
2017-11-16T11:55:12.121Z,94.17
2017-11-16T11:56:12.155Z,93.37
2017-11-16T11:57:12.084Z,92.03
2017-11-16T11:58:12.264Z,94.51
2017-11-16T11:59:12.050Z,96.22
2017-11-16T12:00:12.034Z,94.79
2017-11-16T12:01:12.019Z,95.84
2017-11-16T12:02:11.732Z,96.03
2017-11-16T12:03:11.987Z,99.99
2017-11-16T12:04:11.697Z,97.46
2017-11-16T12:05:11.948Z,97.56
2017-11-16T12:06:11.663Z,97.27
2017-11-16T12:07:11.917Z,99.99
2017-11-16T12:08:11.925Z,99.99
2017-11-16T12:09:11.900Z,99.99
2017-11-16T12:10:11.598Z,99.99
2017-11-16T12:11:11.581Z,99.99
2017-11-16T12:12:11.837Z,99.99
2017-11-16T12:13:11.552Z,99.99
2017-11-16T12:14:11.804Z,99.99
2017-11-16T12:15:11.518Z,99.99
2017-11-16T12:16:11.501Z,99.99
2017-11-16T12:17:11.484Z,99.99
2017-11-16T12:18:11.765Z,99.99
2017-11-16T12:19:11.718Z,99.46
2017-11-16T12:20:11.437Z,99.99
2017-11-16T12:21:11.690Z,99.99
2017-11-16T12:22:11.404Z,99.99
2017-11-16T12:23:11.659Z,99.99
2017-11-16T12:24:11.371Z,99.99
2017-11-16T12:25:11.353Z,99.99
2017-11-16T12:26:11.622Z,99.99
2017-11-16T12:27:11.597Z,99.99
2017-11-16T12:28:11.306Z,99.99
2017-11-16T12:29:11.566Z,99.99
2017-11-16T12:30:11.274Z,99.99
2017-11-16T12:31:11.259Z,99.99
2017-11-16T12:32:11.512Z,99.99
2017-11-16T12:33:11.496Z,99.99
2017-11-16T12:34:11.210Z,99.99
2017-11-16T12:35:11.473Z,99.99
2017-11-16T12:36:11.443Z,99.99
2017-11-16T12:37:11.431Z,99.13
2017-11-16T12:38:11.420Z,97.99
2017-11-16T12:39:11.405Z,98.27
2017-11-16T12:40:11.115Z,99.55
2017-11-16T12:41:11.093Z,99.99
2017-11-16T12:42:11.226Z,99.99
2017-11-16T12:43:11.336Z,99.99
2017-11-16T12:44:11.043Z,99.99
2017-11-16T12:45:11.296Z,99.99
2017-11-16T12:46:11.013Z,99.99
2017-11-16T12:47:10.995Z,99.99
2017-11-16T12:48:11.248Z,99.99
2017-11-16T12:49:11.234Z,99.99
2017-11-16T12:50:11.222Z,99.99
2017-11-16T12:51:11.201Z,99.99
2017-11-16T12:52:10.917Z,99.99
2017-11-16T12:53:11.167Z,99.99
2017-11-16T12:54:11.150Z,99.99
2017-11-16T12:55:10.864Z,99.99
2017-11-16T12:56:10.846Z,99.99
2017-11-16T12:57:11.107Z,99.99
2017-11-16T12:58:11.093Z,99.99
2017-11-16T12:59:11.069Z,99.98
2017-11-16T13:00:10.782Z,99.99
2017-11-16T13:01:11.034Z,99.99
2017-11-16T13:02:10.747Z,99.99
2017-11-16T13:03:10.997Z,99.99
2017-11-16T13:04:10.720Z,99.99
2017-11-16T13:05:10.966Z,98.22
2017-11-16T13:06:10.955Z,99.46
2017-11-16T13:07:10.933Z,98.99
2017-11-16T13:08:10.649Z,99.99
2017-11-16T13:09:10.909Z,99.99
2017-11-16T13:10:10.887Z,99.99
2017-11-16T13:11:10.596Z,99.99
2017-11-16T13:12:10.855Z,99.99
2017-11-16T13:13:10.839Z,99.99
2017-11-16T13:14:10.837Z,99.99
2017-11-16T13:15:10.533Z,99.99
2017-11-16T13:16:10.520Z,99.99
2017-11-16T13:17:10.780Z,99.99
2017-11-16T13:18:10.537Z,99.99
2017-11-16T13:19:10.754Z,99.99
2017-11-16T13:20:10.451Z,99.99
2017-11-16T13:21:10.708Z,99.99
2017-11-16T13:22:10.689Z,99.99
2017-11-16T13:23:10.721Z,99.99
2017-11-16T13:24:10.385Z,99.99
2017-11-16T13:25:10.647Z,99.99
2017-11-16T13:26:10.622Z,99.99
2017-11-16T13:27:10.610Z,99.99
2017-11-16T13:28:10.786Z,99.99